x

8452951 - Potter Cove, Prudence Island, Ri (ptcr1) Weather Station

8:54 - Mon 1st Jun 2015 All times are EDT. -4 hours from GMT.

  • Wind
    16mph, 22mph gusts
  • Air Temp 50°f
  • Sea Pressure 1023mb
  • 8452951 - Potter Cove, Prudence Island, Ri
  • 8452951 - Potter Cove, Prudence Island, Ri

More Historic Weather Station data

Upgrade to MSW Pro to gain access to the past 30 days of data for over 8000 Wavebouys and Weather Stations around the globe.

Join Pro

Comparision Forecast

View Surf forecast
   
lun. 06/01 8:54 16 22 mph 1023mb 50f
8:48 17 25 mph 1023mb 50f
8:42 16 21 mph 1023mb 50f
8:36 18 24 mph 1023mb 50f
8:30 17 23 mph 1022.9mb 50f
8:24 18 23 mph 1022.8mb 50f
8:18 18 24 mph 1023mb 50f
8:12 17 23 mph 1022.9mb 50f
8:06 16 21 mph 1022.9mb 51f
8:00 17 22 mph 1022.8mb 50f
7:54 17 23 mph 1022.9mb 50f
7:48 17 23 mph 1023mb 50f
7:42 17 21 mph 1023.1mb 50f
7:36 17 23 mph 1023mb 51f
7:30 18 23 mph 1023mb 51f
7:24 18 24 mph 1023.1mb 50f
7:18 17 24 mph 1023.1mb 51f
7:12 17 23 mph 1023.1mb 50f
7:06 18 24 mph 1023.2mb 50f
7:00 15 21 mph 1023.2mb 50f
6:54 15 21 mph 1023.2mb 50f
6:48 16 21 mph 1023.2mb 50f
6:42 17 23 mph 1023mb 50f
6:36 18 24 mph 1023mb 50f
6:30 17 23 mph 1023mb 50f
6:24 17 23 mph 1023.1mb 50f
6:18 17 23 mph 1023.1mb 50f
6:12 18 24 mph 1022.9mb 51f
6:06 18 23 mph 1022.9mb 51f
6:00 18 23 mph 1022.8mb 50f
5:54 17 23 mph 1022.9mb 51f
5:48 18 25 mph 1022.7mb 51f
5:42 16 21 mph 1022.8mb 51f
5:36 17 23 mph 1022.9mb 51f
5:30 21 26 mph 1022.7mb 51f
5:24 20 25 mph 1022.7mb 51f
5:18 20 25 mph 1022.8mb 51f
5:12 18 25 mph 1022.8mb 51f
5:06 17 25 mph 1022.9mb 52f
5:00 18 26 mph 1023mb 51f
4:54 18 24 mph 1023mb 51f
4:48 18 24 mph 1022.9mb 51f
4:42 18 25 mph 1022.8mb 51f
4:36 18 24 mph 1022.9mb 51f
4:30 20 23 mph 1022.9mb 51f
4:24 21 28 mph 1022.8mb 52f
4:18 21 28 mph 1022.9mb 52f
4:12 17 22 mph 1023mb 52f
4:06 20 25 mph 1023mb 52f
4:00 22 26 mph 1023mb 52f
3:54 21 26 mph 1023mb 52f
3:48 20 25 mph 1023mb 52f
3:42 18 25 mph 1023mb 53f
3:36 20 25 mph 1023mb 53f
3:30 16 23 mph 1022.9mb 53f
3:24 17 23 mph 1022.9mb 53f
3:18 17 22 mph 1022.9mb 53f
3:12 18 24 mph 1022.9mb 53f
3:06 20 25 mph 1022.9mb 53f
3:00 18 25 mph 1023mb 53f
2:54 21 26 mph 1023mb 53f
2:48 20 26 mph 1023mb 53f
2:42 16 22 mph 1023mb 53f
2:36 17 23 mph 1023mb 53f
2:30 18 24 mph 1023mb 53f
2:24 18 25 mph 1023mb 53f
2:18 22 26 mph 1023mb 53f
2:12 18 24 mph 1022.9mb 53f
2:06 17 25 mph 1023mb 53f
2:00 16 22 mph 1023mb 53f
1:54 18 24 mph 1023mb 53f
1:48 17 23 mph 1023mb 53f
1:42 16 21 mph 1023.1mb 53f
1:36 16 22 mph 1023mb 54f
1:30 16 22 mph 1022.9mb 54f
1:24 16 23 mph 1023.1mb 54f
1:18 16 22 mph 1023.1mb 53f
1:12 17 22 mph 1023mb 53f
1:06 15 20 mph 1023.1mb 54f
1:00 15 21 mph 1023.1mb 53f
12:54 14 20 mph 1023.1mb 53f
12:48 15 20 mph 1023.2mb 54f
12:42 15 20 mph 1023.2mb 53f
12:36 16 22 mph 1023.2mb 53f
12:30 16 23 mph 1023.1mb 53f
12:24 16 21 mph 1023.1mb 53f
12:18 15 20 mph 1023.2mb 53f
12:12 14 17 mph 1023.3mb 53f
12:06 13 17 mph 1023.3mb 53f
12:00 11 15 mph 1023.4mb 53f
11:54 13 18 mph 1023.2mb 53f
11:48 16 21 mph 1023.2mb 53f
11:42 15 18 mph 1023.1mb 53f
11:36 13 18 mph 1023.2mb 53f
11:30 14 18 mph 1023.1mb 53f
11:24 13 17 mph 1023.3mb 53f
11:18 11 15 mph 1023.3mb 53f
11:12 15 18 mph 1023.2mb 53f
11:06 15 20 mph 1023.2mb 53f
11:00 14 18 mph 1023.2mb 53f
10:54 13 18 mph 1023.2mb 53f
10:48 13 17 mph 1023.2mb 53f
10:42 14 17 mph 1023.1mb 53f
10:36 14 18 mph 1023.1mb 53f
10:30 13 17 mph 1023.1mb 53f
10:24 14 17 mph 1023.2mb 53f
10:18 14 17 mph 1023.1mb 52f
10:12 14 18 mph 1023.2mb 52f
10:06 13 16 mph 1023.2mb 52f
10:00 11 18 mph 1023.1mb 53f
9:54 14 18 mph 1023.1mb 53f
9:48 13 16 mph 1023.2mb 53f
9:42 13 20 mph 1023.1mb 52f
9:36 13 17 mph 1023mb 53f
9:30 14 21 mph 1023mb 52f
9:24 11 16 mph 1023mb 52f
9:18 13 18 mph 1023.1mb 52f
9:12 13 17 mph 1023.1mb 52f
9:06 13 17 mph 1023.2mb 52f
9:00 14 18 mph 1023.1mb 52f
8:54 13 17 mph 1023.3mb 52f
8:48 11 16 mph 1023.3mb 52f
8:42 13 16 mph 1023.3mb 52f
8:36 14 18 mph 1023.4mb 52f
8:30 15 20 mph 1023.4mb 52f
8:24 14 18 mph 1023.5mb 52f
8:18 14 18 mph 1023.5mb 52f
8:12 15 18 mph 1023.5mb 52f
8:06 14 18 mph 1023.5mb 52f
8:00 16 21 mph 1023.6mb 52f
7:54 14 20 mph 1023.6mb 52f
7:48 14 20 mph 1023.5mb 52f
7:42 13 17 mph 1023.6mb 51f
7:36 14 18 mph 1023.6mb 51f
7:30 10 14 mph 1023.7mb 51f
7:24 11 15 mph 1023.6mb 52f
7:18 14 18 mph 1023.5mb 51f
7:12 15 20 mph 1023.3mb 52f
7:06 15 18 mph 1023.3mb 51f
7:00 14 17 mph 1023.3mb 51f
4:00 11 17 mph 1022.6mb -
3:54 13 16 mph 1022.6mb -
3:48 15 18 mph 1022.7mb -
3:42 15 22 mph 1022.7mb -
3:36 15 22 mph 1022.7mb -
3:30  -  mph 1022.7mb -
3:24  -  mph 1022.7mb -
3:18 14 18 mph 1023mb 51f
3:12 14 21 mph 1023mb 51f
3:06 15 21 mph 1023mb 51f
3:00 15 21 mph 1023.1mb 51f
2:54 14 18 mph 1023.1mb 51f
2:48  -  mph 1023.1mb -
2:42  -  mph 1023.1mb -
2:36  -  mph 1023.1mb -
2:30  -  mph - 51f
2:24  -  mph - 51f
2:18  -  mph - 51f
2:12  -  mph - 51f
2:06  -  mph - 51f
2:00 14 20 mph - -
1:54 13 21 mph - -
1:48 15 21 mph 1023.4mb 51f
1:42 16 22 mph 1023.5mb 51f
1:36 16 22 mph 1023.3mb 51f
1:30 15 22 mph 1023.4mb 51f
1:24 16 22 mph 1023.5mb 51f
1:18 16 22 mph 1023.6mb 51f
1:12 14 20 mph 1023.7mb 51f
1:06 17 25 mph 1023.6mb 51f
1:00 14 18 mph 1023.6mb 51f
12:54 14 20 mph 1023.8mb 51f
12:48 14 18 mph 1023.9mb 51f
12:42 13 20 mph 1023.9mb 51f
12:36 14 18 mph 1023.8mb 52f
12:30 16 23 mph 1023.9mb 52f
12:24 16 23 mph 1023.9mb 52f
12:18 17 23 mph 1024mb 51f
12:12 15 21 mph 1024.2mb 51f
12:06 16 22 mph 1024.3mb 52f
12:00 15 22 mph 1024.3mb 51f
dim. 05/31 11:54 15 21 mph 1024.4mb 52f
11:48 17 23 mph 1024.4mb 51f
11:42 16 21 mph 1024.3mb 51f
11:36 15 21 mph 1024.2mb 51f
11:30 17 22 mph 1024mb 51f
11:24 16 22 mph 1024.2mb 51f
11:18 16 22 mph 1024.3mb 51f
11:12 14 18 mph 1024.4mb 51f
11:06 14 20 mph 1024.5mb 52f
11:00 16 21 mph 1024.4mb 51f
10:54 16 21 mph 1024.4mb 51f
10:48 17 24 mph 1024.4mb 52f
10:42 15 20 mph 1024.4mb 52f
10:36 15 22 mph 1024.4mb 52f
10:30 15 23 mph 1024.3mb 52f
10:24 15 21 mph 1024.3mb 52f
10:18 14 20 mph 1024.4mb 52f
10:12 15 20 mph 1024.2mb 52f
10:06 15 20 mph 1024.1mb 52f
10:00 15 23 mph 1024.1mb 52f
9:54 16 23 mph 1024.2mb 52f
9:48 16 21 mph 1024.1mb 52f
9:42 17 24 mph 1024.1mb 52f
9:36 15 20 mph 1024.2mb 52f
9:30 17 23 mph 1024.2mb 52f
9:24 15 22 mph 1024.1mb 52f
9:18 16 21 mph 1023.9mb 52f
9:12 17 26 mph 1023.6mb 52f
9:06 17 25 mph 1023.5mb 52f
9:00 21 29 mph 1023.3mb 52f
8:54 20 25 mph 1023.5mb 52f
8:48 20 25 mph 1023.3mb 53f
8:42 20 26 mph 1023.3mb 53f
8:36 21 28 mph 1023.7mb 53f
8:30 17 23 mph 1023.6mb 53f
8:24 20 25 mph 1023.3mb 53f
8:18 20 26 mph 1023.4mb 53f
8:12 16 21 mph 1023.6mb 54f
8:06 18 23 mph 1023.4mb 53f
8:00 23 30 mph 1023.1mb 53f
7:54 22 30 mph 1023.2mb 53f
7:48 20 24 mph 1023.2mb 53f
7:42 20 26 mph 1023mb 54f
7:36 21 28 mph 1023.1mb 55f
7:00 22 30 mph 1022.7mb 55f
6:54 21 28 mph 1022.5mb 55f
6:48 21 29 mph 1022.4mb 55f
6:42 22 29 mph 1022mb 55f
6:36 17 22 mph 1021.9mb 55f
6:30 17 23 mph 1021.8mb 55f
6:24 20 28 mph 1021.7mb 56f
6:18 23 30 mph 1021.7mb 56f
6:12 22 28 mph 1021.7mb 56f
6:06 22 29 mph 1021.4mb 56f
6:00 23 31 mph 1021.1mb 56f
5:54 21 28 mph 1021.1mb 56f
5:48 21 28 mph 1021mb 56f
5:42 21 30 mph 1021mb 56f
5:36 21 26 mph 1020.6mb 56f
5:30 21 28 mph 1020.6mb 56f
5:24 21 26 mph 1020.6mb 56f
5:18 22 29 mph 1020.3mb 57f
5:12 21 28 mph 1020.4mb 58f
5:06 23 30 mph 1020.1mb 58f
5:00 28 34 mph 1019.8mb 58f
4:54 24 34 mph 1019.5mb 59f
4:48 22 32 mph 1019.5mb 61f
4:42 2 6 mph 1018.8mb 68f
4:36 3 9 mph 1018.4mb 68f
4:30 5 9 mph 1018.4mb 68f
4:24 6 11 mph 1018.4mb 68f
4:18 5 8 mph 1018.4mb 68f
4:12 5 10 mph 1018.4mb 68f
4:06 5 9 mph 1018.4mb 69f
4:00 5 8 mph 1018.4mb 69f
3:54 3 8 mph 1018.5mb 68f
3:48 5 10 mph 1018.5mb 69f
3:42 5 10 mph 1018.5mb 69f
3:36 3 8 mph 1018.5mb 70f
3:30 5 8 mph 1018.5mb 70f
3:24 5 9 mph 1018.5mb 70f
3:18 3 8 mph 1018.5mb 71f
3:12 3 8 mph 1018.5mb 71f
3:06 5 9 mph 1018.5mb 71f
3:00 3 8 mph 1018.5mb 70f
2:54 5 7 mph 1018.6mb 70f
2:48 6 11 mph 1018.6mb 70f
2:42 5 10 mph 1018.6mb 70f
2:36 5 8 mph 1018.6mb 70f
2:30 6 10 mph 1018.7mb 70f
2:24 7 11 mph 1018.8mb 70f
2:18 6 11 mph 1018.7mb 71f
2:12 6 15 mph 1018.6mb 71f
2:06 6 10 mph 1018.6mb 71f
2:00 5 11 mph 1018.6mb 71f
1:54 6 10 mph 1018.6mb 71f
1:48 7 15 mph 1018.5mb 71f
1:42 7 16 mph 1018.6mb 71f
1:36 7 16 mph 1018.6mb 71f
1:30 8 15 mph 1018.7mb 71f
1:24 8 18 mph 1018.7mb 71f
1:18 7 16 mph 1018.6mb 71f
1:12 8 16 mph 1018.6mb 70f
1:06 9 18 mph 1018.6mb 71f
1:00 10 17 mph 1018.6mb 72f
12:54 6 14 mph 1018.6mb 72f
12:48 9 20 mph 1018.7mb 72f
12:42 9 17 mph 1018.7mb 72f
12:36 7 16 mph 1018.7mb 73f
12:30 7 16 mph 1018.7mb 71f
12:24 8 16 mph 1018.7mb 70f
12:18 8 15 mph 1018.7mb 71f
12:12 6 11 mph 1018.8mb 72f
12:06 8 14 mph 1018.8mb 71f
12:00 7 13 mph 1018.8mb 71f
11:54 7 14 mph 1018.9mb 70f
11:48 7 13 mph 1018.8mb 70f
11:42 6 11 mph 1018.9mb 71f
11:36 7 13 mph 1018.9mb 71f
11:30 6 16 mph 1018.8mb 71f
11:24 8 14 mph 1018.8mb 71f
11:18 7 14 mph 1018.9mb 71f
11:12 6 11 mph 1018.8mb 71f
11:06 6 13 mph 1018.8mb 71f
11:00 3 10 mph 1018.8mb 72f
10:54 8 15 mph 1018.9mb 72f
10:48 6 13 mph 1018.9mb 72f
10:42 5 11 mph 1018.8mb 72f
10:36 7 15 mph 1018.8mb 71f
10:30 7 15 mph 1018.8mb 71f
10:24 5 8 mph 1018.8mb 72f
10:18 6 10 mph 1018.8mb 73f
10:12 6 10 mph 1018.8mb 72f
10:06 5 11 mph 1018.8mb 71f
10:00 6 10 mph 1018.8mb 71f
9:54 6 14 mph 1018.9mb 71f
9:48 6 11 mph 1018.9mb 70f
9:42 6 10 mph 1019mb 69f
9:36 6 10 mph 1019mb 69f
9:30 6 11 mph 1019mb 69f
9:24 6 11 mph 1019mb 69f
9:18 6 10 mph 1019mb 68f
9:12 6 11 mph 1019mb 69f
9:06 6 13 mph 1019.1mb 68f
9:00 7 10 mph 1019mb 68f
8:54 6 13 mph 1019mb 68f
8:48 7 13 mph 1019mb 68f
8:42 7 14 mph 1019mb 68f
8:36 6 13 mph 1018.9mb 69f
8:30 7 13 mph 1018.9mb 69f
8:24 7 15 mph 1018.9mb 68f
8:18 7 13 mph 1018.9mb 68f
8:12 6 10 mph 1018.9mb 68f
8:06 6 10 mph 1018.9mb 67f
8:00 5 9 mph 1018.9mb 67f
7:54 5 9 mph 1018.9mb 66f
7:48 6 10 mph 1018.9mb 65f
7:42 6 10 mph 1018.9mb 65f
7:36 6 10 mph 1018.9mb 65f
7:30 6 13 mph 1018.9mb 65f
7:24 6 13 mph 1018.9mb 66f
7:18 5 10 mph 1018.9mb 65f
7:12 6 9 mph 1018.9mb 65f
7:06 6 11 mph 1018.9mb 64f
7:00 6 11 mph 1018.9mb 64f
6:54 6 10 mph 1018.9mb 64f
6:48 6 9 mph 1018.9mb 64f
6:42 6 11 mph 1018.8mb 64f
6:36 6 10 mph 1018.8mb 64f
6:30 6 11 mph 1018.8mb 63f
6:24 6 10 mph 1018.8mb 63f
6:18 6 11 mph 1018.8mb 63f
6:12 6 10 mph 1018.8mb 63f
6:06 7 13 mph 1018.8mb 63f
6:00 6 14 mph 1018.8mb 63f
5:54 6 13 mph 1018.8mb 63f
5:48 5 10 mph 1018.8mb 63f
5:42 6 11 mph 1018.8mb 63f
5:36 6 10 mph 1018.8mb 63f
5:30 6 13 mph 1018.7mb 62f
5:24 5 10 mph 1018.7mb 62f
5:18 5 9 mph 1018.8mb 63f
5:12 3 6 mph 1018.8mb 64f
5:06 5 8 mph 1018.8mb 64f
5:00 5 7 mph 1018.9mb 64f
4:54 3 7 mph 1019mb 64f
4:48 3 7 mph 1019mb 64f
4:42 5 7 mph 1019mb 64f
4:36 3 7 mph 1019.1mb 64f
4:30 3 7 mph 1019mb 64f
4:24 6 8 mph 1019mb 65f
4:18 5 9 mph 1018.9mb 64f
4:12 5 8 mph 1018.9mb 63f
4:06 5 9 mph 1018.9mb 63f
4:00 5 8 mph 1018.8mb 65f
3:54 6 9 mph 1018.9mb 65f
3:48 7 11 mph 1018.9mb 65f
3:42 7 10 mph 1018.9mb 65f
3:36 6 10 mph 1018.9mb 65f
3:30 7 11 mph 1018.8mb 65f
3:24 6 13 mph 1018.8mb 65f
3:18 6 10 mph 1018.8mb 65f
3:12 6 10 mph 1018.8mb 65f
3:06 7 14 mph 1018.8mb 65f
3:00 8 14 mph 1018.9mb 65f
2:54 8 14 mph 1018.8mb 65f
2:48 8 13 mph 1018.9mb 65f
2:42 7 13 mph 1019mb 65f
2:36 7 13 mph 1019mb 65f
2:30 7 13 mph 1019mb 65f
2:24 8 13 mph 1019.1mb 65f
2:18 8 14 mph 1019.1mb 65f
2:12 7 11 mph 1019mb 65f
2:06 7 13 mph 1019.1mb 65f
2:00 6 11 mph 1019.2mb 65f
1:54 7 13 mph 1019.2mb 65f
1:48 7 10 mph 1019.2mb 64f
1:42 6 10 mph 1019.2mb 64f
1:36 7 10 mph 1019.4mb 65f
1:30 7 13 mph 1019.5mb 65f
1:24 8 14 mph 1019.3mb 65f
1:18 7 13 mph 1019.2mb 65f
1:12 8 14 mph 1019.3mb 65f
1:06 7 13 mph 1019.4mb 65f
1:00 7 14 mph 1019.4mb 65f
12:54 7 11 mph 1019.4mb 65f
12:48 6 13 mph 1019.5mb 65f
12:42 6 9 mph 1019.5mb 65f
12:36 6 9 mph 1019.8mb 65f
12:30 5 8 mph 1019.8mb 65f
12:24 5 8 mph 1019.9mb 65f
12:18 6 9 mph 1020mb 65f
12:12 7 10 mph 1020.1mb 65f
12:06 7 13 mph 1020.1mb 65f
12:00 8 11 mph 1020mb 65f
sam. 05/30 11:54 7 10 mph 1020mb 65f
11:48 7 13 mph 1020mb 65f
11:42 7 13 mph 1019.9mb 65f
11:36 7 11 mph 1019.9mb 65f
11:30 8 14 mph 1019.8mb 65f
11:24 8 11 mph 1019.8mb 66f
11:18 7 14 mph 1019.8mb 66f
11:12 8 15 mph 1019.8mb 66f
11:06 7 17 mph 1019.8mb 66f
11:00 6 10 mph 1020mb 65f
10:54 8 14 mph 1020mb 66f
10:48 7 11 mph 1020mb 66f
10:42 8 14 mph 1020mb 66f
10:36 7 11 mph 1019.9mb 66f
10:30 7 10 mph 1020mb 65f
10:24 7 13 mph 1020.1mb 65f
10:18 7 11 mph 1020mb 66f
10:12 7 14 mph 1020mb 65f
10:06 7 13 mph 1020mb 65f
10:00 7 10 mph 1019.9mb 65f
9:54 8 14 mph 1019.9mb 65f
9:48 7 14 mph 1019.8mb 65f
9:42 8 13 mph 1019.8mb 65f
9:36 8 15 mph 1019.9mb 65f
9:30 7 10 mph 1019.9mb 65f
9:24 7 11 mph 1019.8mb 65f
9:18 7 11 mph 1019.8mb 65f
9:12 7 13 mph 1019.8mb 65f
9:06 8 13 mph 1019.7mb 66f
9:00 7 13 mph 1019.6mb 66f
8:54 7 10 mph 1019.6mb 66f
8:48 7 13 mph 1019.6mb 66f
8:42 7 14 mph 1019.6mb 66f
8:36 7 13 mph 1019.6mb 66f
8:30 7 11 mph 1019.6mb 66f
8:24 7 15 mph 1019.6mb 66f
8:18 8 15 mph 1019.6mb 67f
8:12 8 14 mph 1019.6mb 67f
8:06 9 16 mph 1019.7mb 67f
8:00 8 16 mph 1019.8mb 67f
7:54 8 14 mph 1019.8mb 67f
7:48 8 15 mph 1019.8mb 68f
7:42 9 15 mph 1019.8mb 68f
7:36 8 14 mph 1020mb 69f
7:30 8 16 mph 1020mb 69f
7:24 7 14 mph 1020mb 69f
7:18 10 21 mph 1020mb 69f
7:12 8 16 mph 1020mb 69f
7:06 8 15 mph 1020mb 69f
7:00 9 17 mph 1020.1mb 70f
6:54 10 15 mph 1020mb 69f
6:48 9 17 mph 1020.1mb 70f
6:42 9 16 mph 1020.1mb 70f
6:36 9 16 mph 1020.1mb 71f
6:30 8 15 mph 1020.1mb 71f
6:24 8 15 mph 1020.1mb 71f
6:18 9 17 mph 1020.1mb 71f
6:12 8 16 mph 1020.2mb 71f
6:06 9 16 mph 1020.2mb 71f
6:00 9 17 mph 1020.1mb 72f
5:54 9 17 mph 1020.2mb 71f
5:48 9 17 mph 1020.1mb 72f
5:42 11 20 mph 1020.2mb 73f
5:36 9 15 mph 1020.2mb 73f
5:30 9 17 mph 1020.3mb 72f
5:24 9 20 mph 1020.3mb 73f
5:18 9 15 mph 1020.3mb 73f
5:12 11 18 mph 1020.3mb 73f
5:06 10 17 mph 1020.3mb 73f
5:00 10 17 mph 1020.5mb 73f
4:54 10 18 mph 1020.5mb 73f
4:48 10 22 mph 1020.5mb 73f
4:42 10 16 mph 1020.5mb 73f
4:36 10 21 mph 1020.6mb 73f
4:30 9 15 mph 1020.5mb 73f
4:24 9 16 mph 1020.6mb 74f
4:18 8 15 mph 1020.6mb 74f
4:12 8 18 mph 1020.7mb 74f
4:06 7 15 mph 1020.7mb 73f
4:00 8 16 mph 1020.9mb 71f
3:54 8 17 mph 1020.9mb 71f
3:48 9 18 mph 1021mb 72f
3:42 8 16 mph 1021mb 72f
3:36 10 21 mph 1021mb 72f
3:30 7 14 mph 1021.2mb 71f
3:24 8 18 mph 1021.3mb 71f
3:18 9 21 mph 1021.4mb 71f
3:12 9 21 mph 1021.4mb 71f
3:06 9 21 mph 1021.3mb 71f
3:00 8 16 mph 1021.4mb 72f
2:54 8 16 mph 1021.4mb 73f
2:48 8 15 mph 1021.5mb 73f
2:42 8 14 mph 1021.5mb 73f
2:36 8 16 mph 1021.6mb 73f
2:30 7 18 mph 1021.7mb 73f
2:24 8 18 mph 1021.7mb 73f
2:18 10 20 mph 1021.8mb 73f
2:12 9 16 mph 1021.9mb 72f
2:06 9 16 mph 1021.9mb 73f
2:00 7 16 mph 1022mb 73f
1:54 7 15 mph 1022mb 72f
1:48 9 18 mph 1022mb 71f
1:42 8 18 mph 1022.1mb 72f
1:36 8 16 mph 1022.1mb 72f
1:30 8 16 mph 1022.1mb 71f
1:24 9 17 mph 1022.2mb 71f
1:18 8 17 mph 1022.3mb 71f
1:12 8 17 mph 1022.3mb 71f
1:06 7 15 mph 1022.3mb 71f
1:00 8 18 mph 1022.5mb 71f
12:54 8 15 mph 1022.5mb 71f
12:48 8 17 mph 1022.5mb 70f
12:42 10 17 mph 1022.5mb 71f
12:36 8 16 mph 1022.6mb 71f
12:30 9 20 mph 1022.6mb 71f
12:24 9 17 mph 1022.7mb 72f
12:18 9 16 mph 1022.8mb 71f
12:12 9 18 mph 1022.8mb 71f
12:06 10 17 mph 1022.9mb 71f
12:00 6 13 mph 1023mb 71f
11:54 6 13 mph 1023.2mb 71f
11:48 7 17 mph 1023.2mb 71f
11:42 7 14 mph 1023.3mb 71f
11:36 6 11 mph 1023.4mb 72f
11:30 6 13 mph 1023.4mb 72f
11:24 8 16 mph 1023.5mb 70f
11:18 6 11 mph 1023.5mb 71f
11:12 6 10 mph 1023.6mb 71f
11:06 6 11 mph 1023.7mb 71f
11:00 5 8 mph 1023.6mb 71f
10:54 6 13 mph 1023.6mb 71f
10:48 6 11 mph 1023.7mb 70f
10:42 6 10 mph 1023.8mb 69f
10:36 5 11 mph 1023.9mb 69f
10:30 6 10 mph 1023.9mb 67f
10:24 5 9 mph 1023.9mb 67f
10:18 6 9 mph 1024mb 66f
10:12 8 15 mph 1024mb 66f
10:06 5 10 mph 1024mb 66f
10:00 5 10 mph 1024mb 66f
9:54 3 9 mph 1024.1mb 65f
9:48 6 13 mph 1024.1mb 63f
9:42 6 13 mph 1024.2mb 64f
9:36 8 14 mph 1024.2mb 63f
9:30 7 14 mph 1024.2mb 62f
9:24 5 10 mph 1024.3mb 62f
9:18 6 10 mph 1024.3mb 62f
9:12 6 9 mph 1024.3mb 62f
9:06 5 10 mph 1024.2mb 61f
9:00 6 10 mph 1024.2mb 61f
8:54 6 11 mph 1024.2mb 60f
8:48 3 8 mph 1024.2mb 61f
8:42 5 10 mph 1024.2mb 60f
8:36 6 9 mph 1024.3mb 60f
8:30 3 9 mph 1024.3mb 60f
8:24 6 11 mph 1024.3mb 59f
8:18 6 9 mph 1024.3mb 59f
8:12 5 9 mph 1024.4mb 60f
8:06 5 8 mph 1024.3mb 60f
8:00 3 9 mph 1024.3mb 60f
7:54 3 6 mph 1024.4mb 60f
7:48 3 8 mph 1024.4mb 60f
7:42 3 9 mph 1024.4mb 60f
7:36 3 8 mph 1024.5mb 60f
7:30 5 8 mph 1024.6mb 60f
7:24 3 8 mph 1024.6mb 59f
7:18 3 8 mph 1024.5mb 59f
7:12 5 8 mph 1024.6mb 59f
7:06 3 6 mph 1024.5mb 59f
7:00 3 8 mph 1024.5mb 59f
6:54 5 8 mph 1024.6mb 59f
6:48 3 7 mph 1024.6mb 59f
6:42 3 6 mph 1024.5mb 59f
6:36 3 9 mph 1024.5mb 59f
6:30 3 8 mph 1024.5mb 58f
6:24 5 8 mph 1024.5mb 58f
6:18 3 10 mph 1024.5mb 58f
6:12 5 9 mph 1024.4mb 58f
6:06 6 8 mph 1024.4mb 58f
6:00 3 8 mph 1024.4mb 58f
5:54 3 8 mph 1024.3mb 58f
5:48 3 7 mph 1024.2mb 58f
5:42 5 8 mph 1024.2mb 58f
5:36 5 8 mph 1024.1mb 58f
5:30 3 7 mph 1024.1mb 58f
5:24 3 7 mph 1023.9mb 58f
5:18 5 9 mph - 58f
5:12 3 6 mph - 58f
5:06 5 8 mph - 58f
5:00 3 8 mph 1023.6mb 58f
4:54 3 7 mph 1023.5mb 58f
4:48 3 7 mph 1023.5mb 58f
4:42 3 6 mph 1023.5mb 58f
4:36 3 6 mph 1023.5mb 59f
4:30 3 6 mph 1023.6mb 59f
4:24 2 6 mph 1023.6mb 59f
4:18 3 7 mph 1023.6mb 58f
4:12 2 5 mph 1023.6mb 58f
4:06 3 6 mph 1023.6mb 58f
4:00 3 9 mph 1023.6mb 58f
3:54 3 6 mph 1023.6mb 58f
3:48 5 7 mph 1023.6mb 58f
3:42 3 7 mph 1023.6mb 58f
3:36 3 6 mph 1023.6mb 58f
3:30 5 9 mph 1023.6mb 58f
3:24 3 7 mph 1023.5mb 58f
3:18 3 7 mph 1023.6mb 58f
3:12 3 6 mph 1023.7mb 58f
3:06 3 7 mph 1023.7mb 58f
3:00 2 5 mph 1023.7mb 58f
2:54 5 8 mph 1023.7mb 58f
2:48 3 7 mph - 58f
2:42 3 7 mph - 58f
2:36 3 6 mph - 58f
2:30 3 7 mph 1023.8mb 58f
2:24 3 8 mph 1023.8mb 58f
2:18 5 8 mph - 58f
2:12 3 6 mph - 58f
2:06 3 8 mph - 58f
2:00 3 7 mph 1023.9mb 58f
1:54 5 8 mph 1024mb 58f
1:48 3 7 mph 1024.1mb 58f
1:42 3 7 mph 1024.1mb 58f
1:36 3 7 mph 1024.1mb 58f
1:30 3 7 mph 1024.1mb 58f
1:24 3 7 mph 1024mb 59f
1:18 5 8 mph 1024mb 58f
1:12 3 7 mph 1024.1mb 59f
1:06 3 6 mph 1024.2mb 59f
1:00 2 5 mph 1024.3mb 59f
12:54 3 7 mph 1024.3mb 59f
12:48 3 6 mph 1024.3mb 59f
12:42 3 6 mph 1024.5mb 59f
12:36 3 6 mph 1024.5mb 59f
12:30 5 8 mph 1024.5mb 59f
12:24 5 8 mph 1024.5mb 59f
12:18 3 8 mph 1024.6mb 59f
12:12 3 6 mph 1024.7mb 60f
12:06 3 7 mph 1024.6mb 60f
12:00 3 7 mph 1024.6mb 60f
ven. 05/29 11:54 5 7 mph 1024.7mb 60f
11:48 3 5 mph 1024.7mb 60f
11:42 3 6 mph 1024.7mb 60f
11:36 2 3 mph 1024.8mb 60f
11:30 2 3 mph 1024.8mb 60f
11:24 2 5 mph 1024.9mb 60f
11:18 3 5 mph 1024.8mb 60f
11:12 3 5 mph 1024.9mb 60f
11:06 2 5 mph 1025mb 60f
11:00 2 5 mph 1025mb 60f
10:54 2 5 mph 1025mb 60f
10:48 2
mph
1025.1mb 60f
10:42 2 3 mph 1025.1mb 59f
10:36 2 3 mph 1025.2mb 59f
10:30 2 3 mph 1025.2mb 60f
10:24  -  1 mph 1025.2mb 59f
10:18  -  1 mph 1025.2mb 60f
10:12  -  1 mph 1025.2mb 60f
10:06  -  2 mph 1025.2mb 61f
10:00 1
mph
1025.3mb 60f
9:54 1 2 mph 1025.2mb 60f
9:48  -  1 mph 1025.3mb 61f
9:42  -  1 mph 1025.2mb 61f
9:36  -  1 mph 1025.2mb 61f
9:30  -  1 mph 1025.2mb -
9:24  -  1 mph 1025.1mb -
9:18  -  2 mph 1025.1mb 61f
9:12 1 2 mph 1025mb 62f
9:06 1 2 mph 1025mb 62f
9:00 1 2 mph 1025mb 62f
8:54 2 3 mph 1025mb 62f
8:48 2 5 mph 1025.1mb 62f
8:42 2 6 mph 1025mb 62f
8:36 2 5 mph 1025.1mb 62f
8:30 2 3 mph 1025mb 62f
8:24 2 3 mph 1025mb 62f
8:18 2 5 mph 1025mb 62f
8:12 3 6 mph 1025mb 62f
8:06 2 5 mph 1025.3mb 62f
8:00 3 8 mph 1025.3mb 62f
7:54 3 6 mph 1025.1mb 63f
7:48 3 7 mph 1025.1mb 63f
7:42 3 7 mph 1025.2mb 63f
7:36 3 7 mph 1025.2mb 63f
7:30 5 8 mph 1025.1mb 63f
7:24 3 7 mph 1025.1mb 64f
7:18 5 9 mph 1025.1mb 64f
7:12 5 8 mph 1025.1mb 64f
7:06 5 9 mph 1025.2mb 64f
7:00 5 8 mph 1025.2mb 64f
6:54 5 8 mph 1025.1mb 64f
6:48 5 10 mph 1025.2mb 65f
6:42 5 7 mph 1025.1mb 65f
6:36 3 9 mph 1025mb 65f
6:30 5 8 mph 1025mb 66f
6:24 5 11 mph 1024.9mb 66f
6:18 5 10 mph 1024.8mb 66f
6:12 6 14 mph 1024.8mb 66f
6:06 5 11 mph 1024.7mb 67f
6:00 6 11 mph 1024.8mb 68f
5:54 6 13 mph 1024.8mb 68f
5:48 7 16 mph 1024.9mb 68f
5:42 7 14 mph 1024.9mb 68f
5:36 8 14 mph 1024.9mb 68f
5:30 8 13 mph 1025mb 68f
5:24 8 14 mph 1024.9mb 68f
5:18 5 13 mph 1025mb 69f
5:12 6 11 mph 1025mb 69f
5:06 7 14 mph 1025mb 69f
5:00 7 13 mph 1025.1mb 69f
4:54 8 15 mph 1025.1mb 69f
4:48 8 13 mph 1025.2mb 69f
4:30  -  mph 1025.1mb -
4:24  -  mph 1025.1mb -
4:18  -  mph 1025.1mb -
4:12  -  mph 1025.2mb -
4:06  -  mph 1025.2mb -
4:00  -  mph 1025.3mb -
3:54  -  mph 1025.4mb -
3:48  -  mph 1025.3mb -
3:30 7 13 mph 1025.3mb 71f
3:24 8 15 mph 1025.3mb 72f
3:18 8 17 mph 1025.3mb 72f
3:12 7 16 mph 1025.3mb 72f
3:06 5 10 mph 1025.3mb 73f
3:00 6 11 mph 1025.3mb 74f
2:54 7 13 mph 1025.3mb 73f
2:48 9 16 mph 1025.4mb 73f
2:42 7 15 mph 1025.5mb 74f
2:36 8 15 mph 1025.5mb 73f
2:30 8 14 mph 1025.5mb 73f
2:24 6 13 mph 1025.4mb 74f
2:18 6 11 mph 1025.5mb 75f
2:12 6 14 mph 1025.5mb 75f
2:06 6 13 mph 1025.4mb 75f
2:00 6 10 mph 1025.4mb 75f
1:54 6 9 mph 1025.5mb 76f
1:48 5 9 mph 1025.5mb 76f
1:42 7 14 mph 1025.6mb 74f
1:36 8 13 mph 1025.7mb 74f
1:30 6 11 mph 1025.8mb 75f
1:24 5 8 mph 1025.7mb 76f
1:18 6 11 mph 1025.7mb 75f
1:12 7 10 mph 1025.7mb 75f
1:06 7 11 mph 1025.7mb 74f
1:00 5 9 mph 1025.7mb 76f
12:54 6 9 mph 1025.7mb 76f
12:48 5 8 mph 1025.7mb 77f
12:42 6 8 mph 1025.7mb 75f
12:36 5 9 mph 1025.8mb 76f
12:30 6 10 mph 1025.8mb 76f
12:24 2 7 mph 1025.8mb 78f
12:18 1 2 mph 1025.8mb 77f
12:12 1 2 mph 1025.8mb 77f
12:06 2
mph
1025.8mb 76f
12:00 2 3 mph 1025.8mb 77f
11:54 2 3 mph 1025.9mb 76f
11:48 2
mph
1025.9mb 76f
11:42 1 2 mph 1025.9mb 76f
11:36 2 3 mph 1026mb 76f
11:30 1 2 mph 1026mb 76f
11:24 2 3 mph 1026.1mb 75f
11:18 2
mph
1026mb 74f
11:12 2
mph
1026.1mb 74f
11:06 1 2 mph 1026mb 74f
11:00 2
mph
1026.1mb 74f
10:54 1 3 mph 1026.1mb 74f
10:48 1 2 mph 1026.1mb 74f
10:42 1 3 mph 1026.2mb 74f
10:36 1 2 mph 1026.2mb 73f
10:30 2 3 mph 1026.2mb 73f
10:24 2 3 mph 1026.2mb 72f
10:18 1 2 mph 1026.2mb 72f
10:12 1 2 mph 1026.2mb 72f
10:06 1 2 mph 1026.2mb 72f
10:00 2 3 mph 1026.2mb 71f
9:54 2
mph
1026.2mb 71f
9:48 3 5 mph 1026.2mb 70f
9:42 5 6 mph 1026.2mb 70f
9:36 5 6 mph 1026.2mb 71f
9:30 5 7 mph 1026.2mb 71f
9:24 5 6 mph 1026.2mb 70f
9:18 5 7 mph 1026.2mb 70f
9:12 5 7 mph 1026.2mb 69f
9:06 5 8 mph 1026.2mb 69f
9:00 5 7 mph 1026.2mb 69f
8:54 6 8 mph 1026.2mb 68f
8:48 5 7 mph 1026.2mb 68f
8:42 6 7 mph 1026.2mb 67f
8:36 5 7 mph 1026.2mb 66f
8:30 7 9 mph 1026.2mb 67f
8:24 6 8 mph 1026.2mb 67f
8:18 7 8 mph 1026.2mb 66f
8:12 6 7 mph 1026.2mb 66f
8:06 6 7 mph 1026.2mb 65f
8:00 5 6 mph 1026.1mb 65f
7:54 6 7 mph 1026.1mb 65f
7:48 6 8 mph 1026mb 66f
7:42 5 7 mph 1026mb 66f
7:36 7 10 mph 1026mb 65f
7:30 5 7 mph 1026mb 65f
7:24 3 6 mph 1026mb 65f
7:18 2 5 mph 1026mb 65f
7:12 3 5 mph 1025.9mb 65f
7:06 2 6 mph 1025.8mb 65f
7:00 3 6 mph 1025.7mb 64f
6:54 3 6 mph 1025.7mb 64f
6:48 2 6 mph 1025.6mb 64f
6:42 3 7 mph 1025.6mb 64f
6:36 2 6 mph 1025.5mb 64f
6:30 2 5 mph 1025.5mb 63f
6:24 1 3 mph 1025.5mb 63f
6:18 1 3 mph 1025.4mb 63f
6:12 2 5 mph 1025.3mb 63f
6:06 1 3 mph 1025.3mb 62f
6:00 1 3 mph 1025.4mb 62f
5:54 1 2 mph 1025.3mb 62f
5:48 1 2 mph 1025.3mb 61f
5:42 2 3 mph 1025.2mb 61f
5:36 2 3 mph 1025.2mb 61f
5:30 2 3 mph 1025.2mb 61f
5:24 2 3 mph 1025.2mb 61f
5:18 2 5 mph 1025mb -
5:12 2 3 mph 1025mb -
5:06 2 3 mph 1025mb -
5:00 3 5 mph 1024.9mb 60f
4:54 2 3 mph 1024.8mb 60f
4:48 2 5 mph 1024.8mb 60f
4:42 2
mph
1024.7mb 60f
4:36 2 3 mph 1024.7mb 60f
4:30 2
mph
1024.6mb 60f
4:24 2
mph
1024.5mb 60f
4:18  -  1 mph 1024.5mb 60f
4:12  -  2 mph 1024.5mb 60f
4:06 2
mph
1024.5mb 60f
4:00 2
mph
1024.5mb 60f
3:54 2 3 mph 1024.4mb 59f
3:48 2
mph
1024.3mb 60f
3:42 1 2 mph 1024.3mb 60f
3:36 1 2 mph 1024.2mb 60f
3:30 1 2 mph 1024.2mb 60f
3:24 1 2 mph 1024.2mb 60f
3:18 1 2 mph 1024.1mb 59f
3:12  -  1 mph 1024.1mb 59f
3:06  -  1 mph 1024.2mb 59f
3:00 1 2 mph 1024.2mb 59f
2:54 2
mph
1024.3mb 60f
2:48 2
mph
1024.2mb 60f
2:42 2
mph
1024.2mb 59f
2:36 2
mph
1024.2mb 59f
2:30 2 3 mph 1024.1mb 60f
2:24 2 3 mph 1024.2mb 60f
2:18  -  2 mph 1024mb -
2:12  -  1 mph 1024mb -
2:06  -  mph 1023.9mb -
2:00  -  mph 1023.9mb 59f
1:54  -  1 mph 1023.9mb 60f